Departure ICAO
Arrival ICAO

The revolutionary moving map for travelling passengers has finally arrived
More information here

LFMD Cannes Mandelieu - EGKB London Biggin Hill


Distance 545 NM


LFMN Nice Cote D'Azur VFR CAVOK

METAR LFMN 211400Z 13003KT 090V180 CAVOK 17/02 Q1026 NOSIG

TAF LFMN 210800Z 2109/2215 20005KT CAVOK TEMPO 2116/2118 09010KT BECMG 2118/2120 34010KT BECMG 2206/2208 20008KT


LFMD Cannes Mandelieu VFR

METAR LFMD 211400Z AUTO 17007KT 130V220 9999 NCD 18/01 Q1026 NOSIG

TAF LFMD 210800Z 2109/2209 VRB05KT CAVOK TEMPO 2115/2117 09010KT BECMG 2206/2208 20008KT


LFLB Chambery Aix Les Bains VFR CAVOK

METAR LFLB 211400Z AUTO 35007KT CAVOK 15/01 Q1028 NOSIG

TAF LFLB 211100Z 2112/2212 35007KT CAVOK BECMG 2200/2202 17005KT


LFLS Grenoble Saint Geoirs VFR CAVOK

METAR LFLS 211400Z AUTO VRB03KT CAVOK 13/M00 Q1028 NOSIG

TAF LFLS 210800Z 2109/2209 35007KT CAVOK BECMG 2117/2119 VRB02KT PROB30 TEMPO 2201/2207 4000 BR


LFLL Lyon Saint Exupery VFR CAVOK

METAR LFLL 211400Z 36007KT 310V040 CAVOK 14/M02 Q1028 NOSIG

TAF LFLL 211100Z 2112/2218 34006KT CAVOK BECMG 2118/2121 VRB02KT BECMG 2210/2213 35005KT


LFLY Lyon Bron VFR CAVOK

METAR LFLY 211400Z AUTO 02005KT 320V090 CAVOK 15/M01 Q1028 NOSIG

TAF LFLY 211100Z 2112/2212 36005KT CAVOK BECMG 2119/2121 VRB02KT


LFLN Saint Yan VFR CAVOK

METAR LFLN 211400Z AUTO 06005KT 030V090 CAVOK 14/02 Q1029 NOSIG

TAF LFLN 211100Z 2112/2121 04005KT CAVOK


LFPM Melun Villaroche VFR CAVOK

METAR LFPM 211400Z AUTO 05006KT 360V110 CAVOK 16/03 Q1031


LFPO Paris Orly VFR CAVOK

METAR LFPO 211400Z 06011KT CAVOK 16/04 Q1032 NOSIG

TAF LFPO 211100Z 2112/2218 03005KT CAVOK BECMG 2200/2202 2000 BR TEMPO 2202/2208 0900 BCFG BKN002 PROB40 TEMPO 2203/2207 0400 FG VV/// BECMG 2208/2210 CAVOK


LFPG Paris Charles De Gaulle VFR

METAR LFPG 211400Z 04009KT 010V080 9999 FEW046 15/05 Q1032 NOSIG

TAF LFPG 211100Z 2112/2218 02007KT CAVOK TX16/2115Z TN04/2206Z BECMG 2123/2202 3000 BR TEMPO 2202/2208 VRB02KT 0400 FG VV/// BECMG 2209/2211 20005KT CAVOK


LFPB Paris Le Bourget VFR CAVOK

METAR LFPB 211400Z AUTO 03008KT 360V080 CAVOK 16/04 Q1032 NOSIG

TAF LFPB 211100Z 2112/2212 02007KT CAVOK BECMG 2123/2202 4000 BR PROB40 TEMPO 2203/2208 VRB02KT 0400 FG VV/// BECMG 2209/2211 20005KT CAVOK


LFPV Villacoublay Velizy VFR CAVOK

METAR LFPV 211400Z AUTO 05009KT 010V080 CAVOK 15/05 Q1031 NOSIG

TAF LFPV 210800Z 2109/2209 03005KT CAVOK TEMPO 2202/2208 3000 BR BKN001 PROB30 TEMPO 2204/2206 0800 FG VV///


LFPN Toussous Le Noble VFR CAVOK

METAR LFPN 211400Z AUTO 02007KT 350V060 CAVOK 15/04 Q1031 NOSIG

TAF LFPN 211100Z 2112/2121 03005KT CAVOK


LFPT Pontoise Cormeilles En Vexin VFR

METAR LFPT 211400Z AUTO 01008KT 350V050 9999 FEW034 15/08 Q1032


LFOB Beauvais Tille VFR

METAR LFOB 211400Z AUTO 36005KT 320V050 9999 FEW007 SCT030 15/08 Q1032 NOSIG

TAF LFOB 211100Z 2112/2212 03005KT 9999 SCT025 BECMG 2121/2123 2000 BR BECMG 2200/2203 0800 FG VV/// PROB40 2200/2208 0200 FG BECMG 2208/2210 5000 BR BKN004 BECMG 2210/2212 CAVOK


LFAT Le Tourquet Paris Plage VFR

METAR LFAT 211400Z AUTO 27004KT 210V340 9999 OVC017/// 11/07 Q1034 TEMPO 4000 BR BKN005 OVC012

TAF LFAT 211100Z 2112/2121 25005KT 9999 OVC016 PROB40 TEMPO 2112/2118 4000 BR BKN005 OVC012


EGMD Lydd VFR

METAR EGMD 211350Z 23010KT 9999 OVC020 12/09 Q1033

TAF EGMD 211055Z 2112/2121 23008KT 9999 BKN020 TEMPO 2112/2121 9000 BKN008


EGKA Shoreham By Sea Shoreham VFR

METAR EGKA 211350Z 20007KT 9999 FEW011 BKN017 11/09 Q1033

TAF AMD EGKA 211228Z 2112/2119 26005KT 9999 BKN016 TEMPO 2112/2118 8000 BKN014


EGKB London Biggin Hill VFR

METAR EGKB 211350Z 30005KT 270V340 9999 BKN018 12/09 Q1033

TAF EGKB 211055Z 2112/2121 24005KT 9999 BKN013 PROB40 TEMPO 2112/2121 BKN016


EGKK London Gatwick VFR

METAR EGKK 211350Z VRB03KT 9999 BKN019 12/09 Q1033

TAF AMD EGKK 211208Z 2112/2218 20005KT 9999 BKN014 TEMPO 2112/2120 BKN016 TEMPO 2121/2201 8000 BKN009 PROB30 TEMPO 2201/2208 2000 BR BKN003 BECMG 2209/2212 BKN017


EGLC London City VFR

METAR EGLC 211350Z AUTO 22005G17KT 180V290 9999 OVC023 14/09 Q1033

TAF EGLC 211055Z 2112/2121 24008KT 9999 BKN017 PROB30 2119/2121 9000 BKN014


EGSS London Stansted VFR

METAR EGSS 211350Z AUTO VRB03KT 9999 FEW016 OVC027 14/10 Q1033

TAF EGSS 211100Z 2112/2218 25006KT 9999 BKN012 BECMG 2112/2115 BKN020 PROB40 TEMPO 2115/2124 BKN014 TEMPO 2200/2211 5000 HZ BKN009 PROB30 TEMPO 2200/2209 2000 BR BKN004 PROB30 TEMPO 2211/2214 BKN014


EGLL London Heathrow VFR

METAR EGLL 211350Z AUTO 28005KT 250V310 9999 BKN018 OVC028 13/09 Q1033 NOSIG

TAF EGLL 211054Z 2112/2218 24006KT 9999 BKN016 PROB40 2119/2124 9000 NSC TEMPO 2200/2208 8000 BKN010 PROB30 TEMPO 2200/2206 BKN007


EGWU Northolt VFR

METAR EGWU 211350Z 29006KT 9999 SCT021 BKN027 14/09 Q1033 WHT TEMPO BKN025 BLU

TAF EGWU 211030Z 2112/2206 23004KT 9999 BKN018 PROB30 2113/2123 SCT025 TEMPO 2123/2206 SCT010 PROB40 2203/2206 6000 BR BKN006


EGLF London Farnborough VFR

METAR EGLF 211350Z AUTO VRB02KT 9999 OVC017/// 12/08 Q1033

TAF EGLF 211055Z 2112/2121 24006KT 9999 BKN012 PROB40 TEMPO 2112/2121 BKN016



NOTAMS LFMD

 NOTAMS EGKB